Time;durP1;ratioP1;P1;durP2;ratioP2;P2;SDS_P1;SDS_P2;PMS_P1;PMS_P2;Temp;Humidity;BMP_temperature;BMP_pressure;BME280_temperature;BME280_humidity;BME280_pressure;Samples;Min_cycle;Max_cycle;Signal;HPM_P1;HPM_P2
2022/12/09 00:04:36;;;;;;;22.32;15.32;;;4.30;99.90;;;;;;1945013;72;22241;-85
2022/12/09 00:07:28;;;;;;;20.27;14.60;;;4.20;99.90;;;;;;1917440;73;21502;-85
2022/12/09 00:10:20;;;;;;;24.75;15.48;;;4.20;99.90;;;;;;1904671;75;21457;-85
2022/12/09 00:13:12;;;;;;;24.57;14.38;;;4.30;99.90;;;;;;1908013;74;21119;-85
2022/12/09 00:16:08;;;;;;;21.85;14.30;;;4.30;99.90;;;;;;1904661;74;21438;-85
2022/12/09 00:19:00;;;;;;;23.77;14.93;;;4.30;99.90;;;;;;1932476;74;21237;-85
2022/12/09 00:24:32;;;;;;;24.47;15.28;;;4.20;99.90;;;;;;1930261;72;22234;-84
2022/12/09 00:27:24;;;;;;;22.32;14.47;;;4.20;99.90;;;;;;1928546;73;21110;-84
2022/12/09 00:30:16;;;;;;;22.05;14.53;;;4.20;99.90;;;;;;1923697;74;21208;-84
2022/12/09 00:33:08;;;;;;;24.47;14.87;;;4.20;99.90;;;;;;1919796;74;21682;-85
2022/12/09 00:36:08;;;;;;;21.75;14.18;;;4.20;99.90;;;;;;1922102;74;21118;-85
2022/12/09 00:39:00;;;;;;;23.73;14.83;;;4.30;99.90;;;;;;1917222;74;21103;-85
2022/12/09 00:44:31;;;;;;;23.60;14.93;;;4.20;99.90;;;;;;1949939;72;22298;-85
2022/12/09 00:50:03;;;;;;;24.45;15.68;;;4.20;99.90;;;;;;1920788;72;22238;-86
2022/12/09 00:52:56;;;;;;;22.27;14.38;;;4.30;99.90;;;;;;1909160;74;21094;-85
2022/12/09 00:55:50;;;;;;;21.52;14.80;;;4.20;99.90;;;;;;1892720;75;21635;-84
2022/12/09 00:58:41;;;;;;;21.42;14.65;;;4.30;99.90;;;;;;1901764;75;21110;-84
2022/12/09 01:01:33;;;;;;;21.40;15.15;;;4.30;99.90;;;;;;1887072;75;21051;-84
2022/12/09 01:04:25;;;;;;;24.82;15.83;;;4.30;99.90;;;;;;1906698;75;21121;-84
2022/12/09 01:07:17;;;;;;;20.80;14.10;;;4.30;99.90;;;;;;1912580;74;21082;-85
2022/12/09 01:10:10;;;;;;;22.90;15.38;;;4.30;99.90;;;;;;1907615;74;21089;-85
2022/12/09 01:13:03;;;;;;;23.15;14.73;;;4.20;99.90;;;;;;1898254;75;21112;-85
2022/12/09 01:15:54;;;;;;;22.98;14.80;;;4.30;99.90;;;;;;1906118;74;21158;-84
2022/12/09 01:18:47;;;;;;;21.85;14.90;;;4.30;99.90;;;;;;1889776;74;21211;-84
2022/12/09 01:24:23;;;;;;;26.45;20.60;;;4.40;99.90;;;;;;1909665;72;28117;-85
2022/12/09 01:27:16;;;;;;;24.85;16.90;;;4.40;99.90;;;;;;1890712;75;21132;-84
2022/12/09 01:30:12;;;;;;;22.60;15.50;;;4.40;99.90;;;;;;1904563;75;21089;-84
2022/12/09 01:33:04;;;;;;;22.82;15.53;;;4.40;99.90;;;;;;1888332;75;21131;-84
2022/12/09 01:35:57;;;;;;;22.95;15.23;;;4.40;99.90;;;;;;1870684;75;21114;-84
2022/12/09 01:41:27;;;;;;;24.80;15.08;;;4.40;99.90;;;;;;1945059;72;23367;-86
2022/12/09 01:44:22;;;;;;;24.20;15.15;;;4.40;99.90;;;;;;1938971;73;21109;-84
2022/12/09 01:47:21;;;;;;;22.45;15.35;;;4.40;99.90;;;;;;1913889;73;21082;-84
2022/12/09 01:50:13;;;;;;;24.00;14.98;;;4.30;99.90;;;;;;1942819;73;21070;-84
2022/12/09 01:55:48;;;;;;;21.55;15.08;;;4.40;99.90;;;;;;1956541;72;22150;-86
2022/12/09 01:58:40;;;;;;;24.23;15.05;;;4.30;99.90;;;;;;1934567;73;21095;-86
2022/12/09 02:01:33;;;;;;;23.07;14.93;;;4.30;99.90;;;;;;1919924;73;21130;-86
2022/12/09 02:04:27;;;;;;;20.90;14.63;;;4.30;99.90;;;;;;1926175;73;21154;-85
2022/12/09 02:07:19;;;;;;;22.05;14.05;;;4.30;99.90;;;;;;1924693;73;21144;-85
2022/12/09 02:10:15;;;;;;;23.85;14.90;;;4.30;99.90;;;;;;1922688;73;21058;-85
2022/12/09 02:15:50;;;;;;;23.45;14.70;;;4.30;99.90;;;;;;1955265;72;22215;-85
2022/12/09 02:21:33;;;;;;;23.67;14.35;;;4.30;99.90;;;;;;1947672;72;22166;-86
2022/12/09 02:24:30;;;;;;;22.20;14.07;;;4.30;99.90;;;;;;1900175;75;21177;-86
2022/12/09 02:27:25;;;;;;;25.17;15.40;;;4.30;99.90;;;;;;1879277;75;21091;-86
2022/12/09 02:30:19;;;;;;;21.25;14.15;;;4.30;99.90;;;;;;1871859;76;21154;-85
2022/12/09 02:33:28;;;;;;;20.90;14.10;;;4.30;99.90;;;;;;1895847;75;21097;-84
2022/12/09 02:39:04;;;;;;;20.62;14.65;;;4.40;99.90;;;;;;1940925;72;22138;-85
2022/12/09 02:44:38;;;;;;;19.40;12.98;;;4.40;99.90;;;;;;1933386;72;22680;-85
2022/12/09 02:47:33;;;;;;;20.00;14.58;;;4.40;99.90;;;;;;1883405;75;21130;-84
2022/12/09 02:53:14;;;;;;;22.40;14.00;;;4.50;99.90;;;;;;1944605;72;22152;-86
2022/12/09 02:56:09;;;;;;;21.77;14.23;;;4.60;99.90;;;;;;1906671;75;21113;-85
2022/12/09 02:59:03;;;;;;;21.00;14.03;;;4.50;99.90;;;;;;1893613;75;21047;-85
2022/12/09 03:04:40;;;;;;;19.95;13.85;;;4.50;99.90;;;;;;1941993;72;22150;-85
2022/12/09 03:10:21;;;;;;;19.90;13.58;;;4.50;99.90;;;;;;1952031;72;22139;-86
2022/12/09 03:13:16;;;;;;;18.20;12.65;;;4.50;99.90;;;;;;1922664;73;21118;-85
2022/12/09 03:16:12;;;;;;;18.73;13.28;;;4.50;99.90;;;;;;1916654;75;21091;-85
2022/12/09 03:19:07;;;;;;;22.27;13.62;;;4.50;99.90;;;;;;1916740;75;21156;-85
2022/12/09 03:22:03;;;;;;;18.70;13.40;;;4.50;99.90;;;;;;1917114;73;21284;-85
2022/12/09 03:27:39;;;;;;;23.40;14.05;;;4.50;99.90;;;;;;1932847;72;22311;-85
2022/12/09 03:30:34;;;;;;;22.07;14.05;;;4.50;99.90;;;;;;1898583;75;21176;-85
2022/12/09 03:33:26;;;;;;;21.35;13.78;;;4.60;99.90;;;;;;1899966;74;21070;-85
2022/12/09 03:36:21;;;;;;;21.27;14.13;;;4.60;99.90;;;;;;1901135;75;21231;-85
2022/12/09 03:39:15;;;;;;;20.15;14.35;;;4.60;99.90;;;;;;1895790;75;21593;-86
2022/12/09 03:42:10;;;;;;;20.55;14.50;;;4.60;99.90;;;;;;1910958;75;21087;-86
2022/12/09 03:45:05;;;;;;;18.52;12.98;;;4.60;99.90;;;;;;1915408;75;21143;-86
2022/12/09 03:47:57;;;;;;;17.75;12.37;;;4.60;99.90;;;;;;1895052;75;21224;-85
2022/12/09 03:50:52;;;;;;;20.95;14.33;;;4.60;99.90;;;;;;1913542;75;21055;-85
2022/12/09 03:56:28;;;;;;;19.27;13.78;;;4.60;99.90;;;;;;1926006;72;22205;-86
2022/12/09 03:59:21;;;;;;;18.73;12.63;;;4.70;99.90;;;;;;1899494;73;21163;-86
2022/12/09 04:02:13;;;;;;;17.55;13.60;;;4.70;99.90;;;;;;1907407;74;21105;-85
2022/12/09 04:05:06;;;;;;;18.52;12.75;;;4.70;99.90;;;;;;1929007;73;21113;-84
2022/12/09 04:08:01;;;;;;;21.35;14.00;;;4.80;99.90;;;;;;1900721;75;21211;-87
2022/12/09 04:10:56;;;;;;;18.98;13.25;;;4.70;99.90;;;;;;1854396;76;21126;-85
2022/12/09 04:13:48;;;;;;;18.87;12.55;;;4.70;99.90;;;;;;1919379;73;21093;-86
2022/12/09 04:19:20;;;;;;;20.92;13.72;;;4.70;99.90;;;;;;1946800;72;22232;-86
2022/12/09 04:22:12;;;;;;;20.23;13.25;;;4.70;99.90;;;;;;1926989;74;21201;-86
2022/12/09 04:25:04;;;;;;;19.82;13.90;;;4.70;99.90;;;;;;1907388;74;21051;-86
2022/12/09 04:27:57;;;;;;;20.15;14.13;;;4.80;99.90;;;;;;1918221;74;21114;-86
2022/12/09 04:30:48;;;;;;;18.98;12.93;;;4.70;99.90;;;;;;1904728;75;21136;-85
2022/12/09 04:33:40;;;;;;;19.37;13.48;;;4.60;99.90;;;;;;1904605;74;21086;-85
2022/12/09 04:36:32;;;;;;;18.52;13.13;;;4.70;99.90;;;;;;1904437;74;21671;-84
2022/12/09 04:39:25;;;;;;;17.23;12.80;;;4.70;99.90;;;;;;1918055;74;21117;-85
2022/12/09 04:42:18;;;;;;;19.55;13.10;;;4.60;99.90;;;;;;1905726;74;21102;-84
2022/12/09 04:45:11;;;;;;;19.55;12.65;;;4.60;99.90;;;;;;1904658;75;21095;-85
2022/12/09 04:48:03;;;;;;;19.35;13.45;;;4.60;99.90;;;;;;1904513;74;21166;-85
2022/12/09 04:50:55;;;;;;;18.17;13.50;;;4.60;99.90;;;;;;1907543;74;21502;-85
2022/12/09 04:53:47;;;;;;;18.60;13.43;;;4.60;99.90;;;;;;1905801;74;21118;-85
2022/12/09 04:59:20;;;;;;;19.77;12.90;;;4.60;99.90;;;;;;1922288;72;22168;-85
2022/12/09 05:02:12;;;;;;;18.20;13.03;;;4.60;99.90;;;;;;1889177;75;21302;-84
2022/12/09 05:05:04;;;;;;;18.42;12.63;;;4.80;99.90;;;;;;1877309;75;21156;-85
2022/12/09 05:10:35;;;;;;;18.02;12.45;;;4.70;99.90;;;;;;1949300;72;22258;-85
2022/12/09 05:13:27;;;;;;;17.75;12.53;;;4.80;99.90;;;;;;1914091;74;21609;-85
2022/12/09 05:16:19;;;;;;;17.23;12.03;;;4.80;99.90;;;;;;1904570;75;21146;-85
2022/12/09 05:19:12;;;;;;;17.40;11.63;;;4.80;99.90;;;;;;1919984;74;21094;-85
2022/12/09 05:24:43;;;;;;;18.57;12.82;;;4.80;99.90;;;;;;1933090;72;22660;-86
2022/12/09 05:27:35;;;;;;;16.05;11.73;;;4.80;99.90;;;;;;1880409;75;21134;-85
2022/12/09 05:33:08;;;;;;;18.27;12.85;;;4.70;99.90;;;;;;1955831;72;22186;-85
2022/12/09 05:38:40;;;;;;;16.80;12.37;;;4.80;99.90;;;;;;1940451;72;22223;-85
2022/12/09 05:41:32;;;;;;;15.85;11.85;;;4.90;99.90;;;;;;1893305;75;21199;-85
2022/12/09 05:44:24;;;;;;;17.77;12.10;;;4.90;99.90;;;;;;1899953;74;21063;-85
2022/12/09 05:49:59;;;;;;;17.50;12.15;;;4.80;99.90;;;;;;1946692;72;22153;-86
2022/12/09 05:55:31;;;;;;;16.60;11.73;;;4.80;99.90;;;;;;1937338;72;22205;-86
2022/12/09 05:58:23;;;;;;;15.05;10.95;;;4.80;99.90;;;;;;1893899;75;21084;-85
2022/12/09 06:01:16;;;;;;;16.30;11.85;;;4.80;99.90;;;;;;1888706;75;21166;-85
2022/12/09 06:04:08;;;;;;;16.07;11.68;;;4.90;99.90;;;;;;1891298;75;21110;-85
2022/12/09 06:07:00;;;;;;;18.65;11.05;;;4.80;99.90;;;;;;1896963;75;21138;-85
2022/12/09 06:09:53;;;;;;;15.53;10.78;;;4.80;99.90;;;;;;1903512;75;21132;-84
2022/12/09 06:15:24;;;;;;;16.45;11.20;;;4.90;99.90;;;;;;1949605;72;22165;-86
2022/12/09 06:18:17;;;;;;;16.45;11.30;;;4.80;99.90;;;;;;1891979;75;21191;-84
2022/12/09 06:21:12;;;;;;;14.23;10.90;;;4.90;99.90;;;;;;1910352;75;21063;-85
2022/12/09 06:24:07;;;;;;;15.40;11.00;;;4.90;99.90;;;;;;1902224;75;21292;-84
2022/12/09 06:26:59;;;;;;;15.13;11.28;;;4.80;99.90;;;;;;1890155;75;21050;-84
2022/12/09 06:29:51;;;;;;;13.93;10.13;;;4.80;99.90;;;;;;1888096;75;21114;-85
2022/12/09 06:35:24;;;;;;;15.70;10.78;;;4.90;99.90;;;;;;1928556;72;22292;-85
2022/12/09 06:38:16;;;;;;;16.55;11.83;;;4.90;99.90;;;;;;1902617;74;21146;-85
2022/12/09 06:41:10;;;;;;;12.93;10.82;;;4.90;99.90;;;;;;1895176;74;21084;-85
2022/12/09 06:44:02;;;;;;;14.55;10.55;;;4.90;99.90;;;;;;1914354;75;21126;-84
2022/12/09 06:49:38;;;;;;;14.70;11.20;;;4.90;99.90;;;;;;1923573;72;22206;-84
2022/12/09 06:52:30;;;;;;;18.10;11.33;;;4.90;99.90;;;;;;1882735;75;21134;-84
2022/12/09 06:58:03;;;;;;;15.75;11.05;;;4.90;99.90;;;;;;1921036;72;22166;-85
2022/12/09 07:00:54;;;;;;;15.05;11.12;;;4.90;99.90;;;;;;1896058;75;21163;-85
2022/12/09 07:03:49;;;;;;;15.53;12.05;;;4.80;99.90;;;;;;1890232;75;21245;-86
2022/12/09 07:09:22;;;;;;;13.75;10.90;;;4.90;99.90;;;;;;1943216;72;22636;-85
2022/12/09 07:17:39;;;;;;;15.15;10.78;;;5.00;99.90;;;;;;1936051;72;20216;-85
2022/12/09 07:20:31;;;;;;;13.65;9.95;;;5.00;99.90;;;;;;1901603;75;21154;-84
2022/12/09 07:23:23;;;;;;;13.65;10.03;;;5.00;99.90;;;;;;1915226;73;21198;-84
2022/12/09 07:26:17;;;;;;;16.07;10.08;;;5.00;99.90;;;;;;1900346;75;21915;-85
2022/12/09 07:29:09;;;;;;;16.27;11.18;;;5.00;99.90;;;;;;1883965;75;21075;-84
2022/12/09 07:34:40;;;;;;;14.75;11.10;;;5.00;99.90;;;;;;1944251;72;22284;-85
2022/12/09 07:37:33;;;;;;;14.07;10.38;;;5.00;99.90;;;;;;1886712;75;21113;-85
2022/12/09 07:40:25;;;;;;;14.25;11.25;;;5.00;99.90;;;;;;1889321;75;21574;-85
2022/12/09 07:43:17;;;;;;;16.05;11.12;;;5.00;99.90;;;;;;1895725;75;21110;-84
2022/12/09 07:46:09;;;;;;;14.33;10.25;;;5.00;99.90;;;;;;1885268;75;21091;-84
2022/12/09 07:49:04;;;;;;;12.88;9.35;;;5.00;99.90;;;;;;1883683;75;21211;-84
2022/12/09 07:51:56;;;;;;;11.88;9.30;;;5.00;99.90;;;;;;1882964;75;21101;-85
2022/12/09 07:54:50;;;;;;;11.85;8.90;;;5.00;99.90;;;;;;1883827;75;21162;-84
2022/12/09 07:57:42;;;;;;;12.65;8.53;;;5.10;99.90;;;;;;1898587;74;21207;-85
2022/12/09 08:00:34;;;;;;;10.23;7.80;;;5.10;99.90;;;;;;1895155;74;21146;-85
2022/12/09 08:03:26;;;;;;;10.90;8.38;;;5.10;99.90;;;;;;1908488;74;21265;-86
2022/12/09 08:06:20;;;;;;;10.82;8.08;;;5.10;99.90;;;;;;1903961;75;21080;-87
2022/12/09 08:09:14;;;;;;;10.82;8.60;;;5.10;99.90;;;;;;1899040;75;21167;-85
2022/12/09 08:12:07;;;;;;;11.15;8.00;;;5.00;99.90;;;;;;1895592;75;21094;-87
2022/12/09 08:14:58;;;;;;;12.35;8.43;;;5.00;99.90;;;;;;1901239;75;21126;-84
2022/12/09 08:17:50;;;;;;;16.48;9.08;;;5.00;99.90;;;;;;1911463;75;21163;-84
2022/12/09 08:20:42;;;;;;;13.58;9.10;;;5.10;99.90;;;;;;1886439;75;21167;-86
2022/12/09 08:23:36;;;;;;;10.98;7.83;;;5.00;99.90;;;;;;1884870;75;21194;-85
2022/12/09 08:26:31;;;;;;;8.73;6.87;;;5.00;99.90;;;;;;1886266;75;21106;-85
2022/12/09 08:29:23;;;;;;;10.10;7.42;;;5.00;99.90;;;;;;1901189;75;21086;-85
2022/12/09 08:34:58;;;;;;;9.30;7.22;;;5.00;99.90;;;;;;1926791;72;22640;-85
2022/12/09 08:37:51;;;;;;;8.63;6.65;;;5.10;99.90;;;;;;1893773;75;21103;-85
2022/12/09 08:40:43;;;;;;;8.43;6.42;;;5.10;99.90;;;;;;1885710;75;21173;-85
2022/12/09 08:46:18;;;;;;;6.80;5.22;;;5.10;99.90;;;;;;1946944;72;22159;-85
2022/12/09 08:49:11;;;;;;;8.90;6.22;;;5.10;99.90;;;;;;1902698;75;21090;-85
2022/12/09 08:52:03;;;;;;;7.45;5.80;;;5.20;99.90;;;;;;1903325;75;21131;-85
2022/12/09 08:54:56;;;;;;;6.22;5.25;;;5.20;99.90;;;;;;1906526;75;21103;-84
2022/12/09 11:37:36;;;;;;;5.28;4.20;;;6.20;99.90;;;;;;1937870;70;21451;31
2022/12/09 11:47:39;;;;;;;4.80;3.87;;;6.30;99.90;;;;;;1949265;71;21100;-96
2022/12/09 11:50:41;;;;;;;6.78;5.28;;;6.40;99.90;;;;;;1934148;73;21145;-95
2022/12/09 11:58:07;;;;;;;7.17;4.67;;;6.40;99.90;;;;;;1902409;75;21155;-86
2022/12/09 12:01:05;;;;;;;6.17;4.60;;;6.40;99.90;;;;;;1964101;71;21130;-86
2022/12/09 12:04:00;;;;;;;5.65;4.40;;;6.50;99.90;;;;;;1965760;72;21608;-84
2022/12/09 12:09:43;;;;;;;8.90;4.83;;;6.50;99.90;;;;;;1966018;72;22499;-85
2022/12/09 12:12:38;;;;;;;4.53;4.03;;;6.40;99.90;;;;;;1918184;73;21062;-84
2022/12/09 12:15:34;;;;;;;6.85;4.35;;;6.50;99.90;;;;;;1921878;73;21058;-84
2022/12/09 12:18:29;;;;;;;5.78;4.28;;;6.60;99.90;;;;;;1917274;73;21235;-84
2022/12/09 12:21:24;;;;;;;6.10;4.17;;;6.60;99.90;;;;;;1918631;73;21071;-84
2022/12/09 12:24:36;;;;;;;5.03;4.50;;;6.60;99.90;;;;;;1917118;73;21171;-84
2022/12/09 12:30:13;;;;;;;5.28;3.80;;;6.50;99.90;;;;;;1921176;72;22282;-84
2022/12/09 12:35:56;;;;;;;8.58;5.35;;;6.50;99.90;;;;;;1915793;72;27962;-85
2022/12/09 12:39:04;;;;;;;5.83;4.25;;;6.60;99.90;;;;;;1894429;75;21087;-84
2022/12/09 12:47:57;;;;;;;3.85;2.98;;;6.50;99.90;;;;;;1933401;73;21153;-85
2022/12/09 12:50:57;;;;;;;4.47;3.20;;;6.50;99.90;;;;;;1940577;72;21119;-85
2022/12/09 12:56:35;;;;;;;4.35;2.87;;;6.50;99.90;;;;;;1943959;72;22633;-84
2022/12/09 12:59:31;;;;;;;6.70;4.05;;;6.40;99.90;;;;;;1885482;75;21168;-85
2022/12/09 13:05:18;;;;;;;4.75;3.77;;;6.40;99.90;;;;;;1932124;72;22200;-85
2022/12/09 13:08:13;;;;;;;4.35;3.95;;;6.50;99.90;;;;;;1906609;73;21064;-85
2022/12/09 13:11:09;;;;;;;6.30;4.10;;;6.50;99.90;;;;;;1917999;73;21055;-84
2022/12/09 13:14:03;;;;;;;5.12;3.62;;;6.60;99.90;;;;;;1868448;76;21078;-84
2022/12/09 13:16:55;;;;;;;4.30;3.37;;;6.50;99.90;;;;;;1912147;74;21111;-83
2022/12/09 13:19:50;;;;;;;5.17;3.30;;;6.50;99.90;;;;;;1916267;73;21175;-83
2022/12/09 13:25:26;;;;;;;3.77;3.05;;;6.60;99.90;;;;;;1932134;72;22614;-85
2022/12/09 13:28:21;;;;;;;7.72;6.30;;;6.60;99.90;;;;;;1903008;74;21094;-84
2022/12/09 13:31:13;;;;;;;5.60;4.85;;;6.60;99.90;;;;;;1910257;75;21148;-84
2022/12/09 13:39:57;;;;;;;5.05;4.50;;;6.70;99.90;;;;;;1946334;72;22262;-84
2022/12/09 13:45:36;;;;;;;5.95;4.85;;;6.70;99.90;;;;;;1949314;72;22170;-84
2022/12/09 13:51:20;;;;;;;4.60;4.03;;;6.70;99.90;;;;;;1935229;72;22238;-85
2022/12/09 13:59:49;;;;;;;3.98;3.08;;;6.70;99.90;;;;;;1941683;72;22229;-84
2022/12/09 14:02:44;;;;;;;3.90;3.50;;;6.60;99.90;;;;;;1902537;75;21445;-85
2022/12/09 14:05:38;;;;;;;4.33;3.55;;;6.60;99.90;;;;;;1899948;75;21185;-84
2022/12/09 14:08:33;;;;;;;5.55;4.30;;;6.60;99.90;;;;;;1901929;75;21636;-84
2022/12/09 14:14:54;;;;;;;3.77;3.37;;;6.70;99.90;;;;;;1935967;72;22158;-85
2022/12/09 14:18:05;;;;;;;3.02;2.70;;;6.70;99.90;;;;;;1873200;75;21118;-84
2022/12/09 14:24:32;;;;;;;4.05;3.55;;;6.50;99.90;;;;;;1934599;72;28008;-85
2022/12/09 14:27:26;;;;;;;3.33;2.70;;;6.80;99.90;;;;;;1883845;75;21369;-86
2022/12/09 14:30:49;;;;;;;4.12;2.87;;;6.70;99.90;;;;;;1875967;75;21443;-85
2022/12/09 14:33:45;;;;;;;4.35;3.05;;;6.70;99.90;;;;;;1880673;75;21130;-84
2022/12/09 14:36:36;;;;;;;3.67;3.12;;;6.60;99.90;;;;;;1883044;75;21592;-84
2022/12/09 14:39:31;;;;;;;3.80;2.92;;;6.50;99.90;;;;;;1883783;75;21201;-84
2022/12/09 14:42:30;;;;;;;3.35;2.98;;;6.50;99.90;;;;;;1888962;75;21083;-83
2022/12/09 14:45:36;;;;;;;4.37;3.12;;;6.50;99.90;;;;;;1886225;75;21164;-84
2022/12/09 14:48:32;;;;;;;3.17;2.87;;;6.50;99.90;;;;;;1884228;75;21164;-86
2022/12/09 14:51:26;;;;;;;3.40;3.05;;;6.50;99.90;;;;;;1883010;75;21099;-84
2022/12/09 14:54:35;;;;;;;3.62;3.15;;;6.50;99.90;;;;;;1883131;75;21071;-83
2022/12/09 14:57:33;;;;;;;4.67;3.55;;;6.50;99.90;;;;;;1883007;75;21132;-84
2022/12/09 15:00:33;;;;;;;5.33;4.33;;;6.50;99.90;;;;;;1884578;75;21154;-84
2022/12/09 15:03:28;;;;;;;5.00;4.35;;;6.50;99.90;;;;;;1889096;75;21213;-84
2022/12/09 15:06:25;;;;;;;5.78;4.12;;;6.40;99.90;;;;;;1892283;75;21118;-85
2022/12/09 15:11:59;;;;;;;4.53;3.60;;;6.40;99.90;;;;;;1951539;72;22194;-83
2022/12/09 15:15:02;;;;;;;3.67;3.33;;;6.40;99.90;;;;;;1916824;75;21102;-84
2022/12/09 15:17:56;;;;;;;5.78;3.80;;;6.40;99.90;;;;;;1730944;82;21173;-84
2022/12/09 15:20:52;;;;;;;16.40;12.43;;;6.50;99.90;;;;;;1767858;81;21136;-84
2022/12/09 15:23:45;;;;;;;6.60;5.03;;;6.40;99.90;;;;;;1792897;79;21194;-84
2022/12/09 15:26:40;;;;;;;4.20;3.80;;;6.40;99.90;;;;;;1769484;80;21203;-86
2022/12/09 15:29:35;;;;;;;4.25;3.50;;;6.40;99.90;;;;;;1781404;80;21086;-84
2022/12/09 15:32:29;;;;;;;3.85;3.33;;;6.40;99.90;;;;;;1752700;81;21132;-84
2022/12/09 15:35:24;;;;;;;4.62;3.92;;;6.40;99.90;;;;;;1768040;81;21101;-84
2022/12/09 15:38:16;;;;;;;4.20;3.80;;;6.40;99.90;;;;;;1789044;80;21087;-84
2022/12/09 15:44:09;;;;;;;4.08;3.67;;;6.40;99.90;;;;;;1954301;72;22197;-85
2022/12/09 15:47:04;;;;;;;5.83;3.90;;;6.40;99.90;;;;;;1897319;75;21083;-84
2022/12/09 15:50:03;;;;;;;5.28;3.50;;;6.40;99.90;;;;;;1884618;75;21212;-84
2022/12/09 15:52:57;;;;;;;3.83;3.45;;;6.40;99.90;;;;;;1883463;75;21086;-84
2022/12/09 15:55:52;;;;;;;4.25;3.20;;;6.30;99.90;;;;;;1884511;75;21625;-85
2022/12/09 16:01:30;;;;;;;4.70;4.10;;;6.20;99.90;;;;;;1928899;72;28104;-85
2022/12/09 16:04:25;;;;;;;4.95;4.22;;;6.50;99.90;;;;;;1906146;75;21110;-85
2022/12/09 16:07:19;;;;;;;5.28;4.37;;;6.40;99.90;;;;;;1908120;75;21661;-84
2022/12/09 16:10:15;;;;;;;6.47;4.97;;;6.30;99.90;;;;;;1896657;75;21196;-84
2022/12/09 16:13:11;;;;;;;5.90;4.20;;;6.30;99.90;;;;;;1884049;76;21172;-84
2022/12/09 16:16:04;;;;;;;5.12;4.45;;;6.20;99.90;;;;;;1895260;75;21099;-84
2022/12/09 16:18:56;;;;;;;5.37;4.70;;;6.20;99.90;;;;;;1905946;75;21176;-85
2022/12/09 16:21:49;;;;;;;11.70;7.97;;;6.20;99.90;;;;;;1905859;75;21094;-84
2022/12/09 16:24:47;;;;;;;8.70;6.12;;;6.20;99.90;;;;;;1883603;76;21567;-84
2022/12/09 16:30:24;;;;;;;6.58;5.72;;;6.00;99.90;;;;;;1944950;72;22369;-85
2022/12/09 16:33:20;;;;;;;6.80;6.00;;;5.90;99.90;;;;;;1906143;75;21109;-84
2022/12/09 16:36:21;;;;;;;6.17;5.20;;;5.90;99.90;;;;;;1905256;75;21158;-85
2022/12/09 16:42:31;;;;;;;6.62;5.80;;;5.80;99.90;;;;;;1939103;72;22158;-85
2022/12/09 16:45:30;;;;;;;7.15;5.62;;;5.80;99.90;;;;;;1898234;75;21113;-85
2022/12/09 16:48:24;;;;;;;8.18;5.83;;;5.90;99.90;;;;;;1900838;75;21101;-84
2022/12/09 16:51:18;;;;;;;7.28;6.12;;;6.10;99.90;;;;;;1867830;76;21125;-84
2022/12/09 16:54:15;;;;;;;7.67;6.47;;;5.90;99.90;;;;;;1900348;75;21103;-85
2022/12/09 16:57:11;;;;;;;6.62;5.92;;;5.80;99.90;;;;;;1864131;76;21146;-84
2022/12/09 17:00:03;;;;;;;6.95;5.75;;;5.80;99.90;;;;;;1874909;76;21098;-85
2022/12/09 17:02:57;;;;;;;6.95;5.90;;;5.80;99.90;;;;;;1870557;76;21106;-84
2022/12/09 17:05:49;;;;;;;6.90;5.08;;;5.90;99.90;;;;;;1870843;76;21130;-84
2022/12/09 17:08:41;;;;;;;6.33;5.72;;;6.00;99.90;;;;;;1870150;76;21077;-84
2022/12/09 17:11:34;;;;;;;8.95;6.80;;;6.10;99.90;;;;;;1877612;76;21175;-84
2022/12/09 17:14:25;;;;;;;7.47;6.67;;;6.00;99.90;;;;;;1877764;75;21140;-84
2022/12/09 17:17:17;;;;;;;6.17;5.50;;;6.00;99.90;;;;;;1863949;75;21215;-84
2022/12/09 17:20:10;;;;;;;6.62;5.58;;;6.00;99.90;;;;;;1870146;76;21168;-84
2022/12/09 17:23:01;;;;;;;5.92;5.33;;;5.90;99.90;;;;;;1863838;76;21619;-84
2022/12/09 17:25:57;;;;;;;6.95;5.95;;;6.00;99.90;;;;;;1873292;76;21106;-83
2022/12/09 17:28:51;;;;;;;7.33;5.17;;;6.00;99.90;;;;;;1882537;76;21184;-84
2022/12/09 17:31:48;;;;;;;7.60;5.80;;;6.00;99.90;;;;;;1881301;76;21545;-84
2022/12/09 17:34:38;;;;;;;7.03;5.45;;;6.00;99.90;;;;;;1845968;76;21433;-83
2022/12/09 17:37:30;;;;;;;7.17;5.55;;;5.90;99.90;;;;;;1910945;75;21105;-84
2022/12/09 17:40:21;;;;;;;6.67;5.65;;;5.90;99.90;;;;;;1872513;76;21063;-83
2022/12/09 17:43:13;;;;;;;6.65;5.60;;;5.90;99.90;;;;;;1886485;74;21119;-84
2022/12/09 17:46:07;;;;;;;5.92;4.95;;;6.00;99.90;;;;;;1873978;75;21180;-84
2022/12/09 17:49:00;;;;;;;7.40;5.35;;;6.10;99.90;;;;;;1895348;75;21062;-84
2022/12/09 17:51:52;;;;;;;5.92;4.70;;;6.10;99.90;;;;;;1858496;76;21141;-85
2022/12/09 17:54:44;;;;;;;5.78;4.78;;;6.10;99.90;;;;;;1886605;75;21161;-84
2022/12/09 17:57:36;;;;;;;7.37;5.15;;;6.00;99.90;;;;;;1887570;75;21144;-84
2022/12/09 18:00:28;;;;;;;5.78;4.50;;;6.00;99.90;;;;;;1886877;75;21110;-84
2022/12/09 18:03:19;;;;;;;6.37;4.50;;;6.00;99.90;;;;;;1875362;76;21623;-85
2022/12/09 18:06:15;;;;;;;5.17;3.70;;;6.00;99.90;;;;;;1887286;75;21134;-84
2022/12/09 18:09:08;;;;;;;4.65;3.58;;;6.00;99.90;;;;;;1883840;75;21103;-84
2022/12/09 18:12:00;;;;;;;3.85;3.35;;;6.00;99.90;;;;;;1885893;75;21093;-83
2022/12/09 18:14:52;;;;;;;4.87;3.50;;;5.90;99.90;;;;;;1890094;75;21522;-83
2022/12/09 18:17:44;;;;;;;4.22;3.42;;;5.90;99.90;;;;;;1877465;75;21610;-86
2022/12/09 18:20:39;;;;;;;3.45;2.58;;;5.80;99.90;;;;;;1899739;75;21136;-85
2022/12/09 18:23:30;;;;;;;4.12;1.62;;;5.90;99.90;;;;;;1881597;75;21142;-84
2022/12/09 18:26:23;;;;;;;2.55;2.00;;;5.80;99.90;;;;;;1875184;76;21201;-83
2022/12/09 18:29:16;;;;;;;3.27;1.92;;;5.90;99.90;;;;;;1865668;76;21159;-85
2022/12/09 18:32:08;;;;;;;2.80;1.82;;;5.70;99.90;;;;;;1866598;75;21560;-85
2022/12/09 18:35:02;;;;;;;3.15;2.25;;;5.80;99.90;;;;;;1886021;75;21054;-84
2022/12/09 18:37:53;;;;;;;2.00;1.80;;;5.90;99.90;;;;;;1885876;75;21142;-84
2022/12/09 18:41:00;;;;;;;2.62;1.95;;;5.80;99.90;;;;;;1877936;75;21073;-84
2022/12/09 18:43:53;;;;;;;5.20;2.35;;;5.90;99.90;;;;;;1865098;76;21137;-84
2022/12/09 18:46:47;;;;;;;3.67;2.77;;;5.90;99.90;;;;;;1885694;74;21158;-84
2022/12/09 18:49:39;;;;;;;4.20;3.50;;;5.90;99.90;;;;;;1900830;74;21177;-84
2022/12/09 18:52:30;;;;;;;5.10;3.60;;;5.90;99.90;;;;;;1899392;74;21117;-84
2022/12/09 18:55:23;;;;;;;3.87;3.47;;;5.90;99.90;;;;;;1909259;74;21113;-84
2022/12/09 18:58:16;;;;;;;4.87;3.92;;;5.90;99.90;;;;;;1868759;76;21129;-85
2022/12/09 19:01:22;;;;;;;5.00;4.03;;;5.90;99.90;;;;;;1864615;76;21160;-84
2022/12/09 19:04:15;;;;;;;5.28;4.35;;;5.90;99.90;;;;;;1864034;76;21631;-85
2022/12/09 19:07:07;;;;;;;5.55;4.40;;;5.90;99.90;;;;;;1864725;76;21058;-85
2022/12/09 19:09:59;;;;;;;5.78;4.22;;;5.90;99.90;;;;;;1868625;76;21164;-85
2022/12/09 19:12:52;;;;;;;5.05;4.25;;;6.00;99.90;;;;;;1866690;76;21237;-84
2022/12/09 19:15:46;;;;;;;5.78;4.50;;;6.00;99.90;;;;;;1877264;76;21141;-84
2022/12/09 19:18:39;;;;;;;5.00;4.12;;;6.00;99.90;;;;;;1875213;76;21118;-84
2022/12/09 19:21:31;;;;;;;5.00;4.40;;;6.00;99.90;;;;;;1874261;76;21208;-85
2022/12/09 19:24:27;;;;;;;5.03;4.17;;;6.10;99.90;;;;;;1869718;76;21185;-85
2022/12/09 19:27:18;;;;;;;4.00;3.27;;;6.00;99.90;;;;;;1864839;76;21098;-84
2022/12/09 19:30:12;;;;;;;5.42;4.22;;;6.00;99.90;;;;;;1864554;76;21114;-83
2022/12/09 19:33:04;;;;;;;4.83;3.77;;;6.10;99.90;;;;;;1864696;76;21110;-84
2022/12/09 19:35:56;;;;;;;2.95;2.05;;;6.00;99.90;;;;;;1885901;76;21095;-84
2022/12/09 19:38:47;;;;;;;2.75;2.10;;;5.90;99.90;;;;;;1866408;76;21103;-85
2022/12/09 19:41:40;;;;;;;3.45;2.40;;;5.90;99.90;;;;;;1864343;76;21156;-86
2022/12/09 19:44:32;;;;;;;4.35;2.80;;;5.70;99.90;;;;;;1876699;75;21120;-85
2022/12/09 19:47:25;;;;;;;3.60;2.70;;;5.60;99.90;;;;;;1864291;76;21107;-84
2022/12/09 19:50:16;;;;;;;3.55;1.82;;;5.50;99.90;;;;;;1859737;76;21126;-84
2022/12/09 19:55:48;;;;;;;2.72;2.08;;;5.50;99.90;;;;;;1943526;72;22665;-84
2022/12/09 19:58:42;;;;;;;5.45;2.22;;;5.50;99.90;;;;;;1891276;75;21138;-84
2022/12/09 20:01:36;;;;;;;6.30;2.27;;;5.40;99.90;;;;;;1890372;75;21109;-83
2022/12/09 20:04:33;;;;;;;3.10;2.40;;;5.40;99.90;;;;;;1893737;75;21102;-83
2022/12/09 20:07:27;;;;;;;6.08;3.00;;;5.40;99.90;;;;;;1894512;75;21163;-84
2022/12/09 20:10:19;;;;;;;4.53;2.95;;;5.40;99.90;;;;;;1894193;75;21079;-84
2022/12/09 20:13:10;;;;;;;3.47;2.67;;;5.40;99.90;;;;;;1872551;76;21114;-86
2022/12/09 20:16:05;;;;;;;3.42;2.55;;;5.40;99.90;;;;;;1884032;75;21096;-84
2022/12/09 20:18:58;;;;;;;3.58;2.70;;;5.30;99.90;;;;;;1872372;75;21059;-84
2022/12/09 20:21:50;;;;;;;3.95;2.60;;;5.20;99.90;;;;;;1893816;75;21110;-83
2022/12/09 20:24:43;;;;;;;3.67;2.67;;;5.20;99.90;;;;;;1872315;76;21086;-83
2022/12/09 20:27:35;;;;;;;4.62;2.70;;;5.20;99.90;;;;;;1886024;75;21095;-85
2022/12/09 20:30:27;;;;;;;4.70;2.95;;;5.10;99.90;;;;;;1882875;75;21081;-84
2022/12/09 20:33:20;;;;;;;4.47;2.80;;;5.10;99.90;;;;;;1879058;75;21219;-84